createdAt,value
2022-12-11T00:02:32.516Z,1.10
2022-12-11T00:05:34.748Z,1.10
2022-12-11T00:08:37.255Z,1.30
2022-12-11T00:11:39.251Z,1.50
2022-12-11T00:14:41.200Z,1.60
2022-12-11T00:17:43.096Z,1.60
2022-12-11T00:20:45.074Z,1.50
2022-12-11T00:23:47.003Z,1.60
2022-12-11T00:26:48.925Z,1.90
2022-12-11T00:29:50.894Z,2.00
2022-12-11T00:32:53.981Z,2.00
2022-12-11T00:35:55.911Z,2.10
2022-12-11T00:38:57.833Z,2.10
2022-12-11T00:41:59.740Z,2.10
2022-12-11T00:45:01.631Z,2.00
2022-12-11T00:48:03.686Z,2.00
2022-12-11T00:51:05.916Z,1.90
2022-12-11T00:54:07.899Z,2.00
2022-12-11T00:57:09.788Z,1.90
2022-12-11T01:00:12.404Z,1.90
2022-12-11T01:03:15.154Z,2.00
2022-12-11T01:06:19.800Z,2.00
2022-12-11T01:09:21.722Z,2.10
2022-12-11T01:12:23.711Z,2.10
2022-12-11T01:15:29.141Z,2.00
2022-12-11T01:18:31.048Z,1.90
2022-12-11T01:21:35.499Z,1.90
2022-12-11T01:24:37.698Z,2.00
2022-12-11T01:27:40.269Z,2.00
2022-12-11T01:30:43.098Z,2.00
2022-12-11T01:33:45.397Z,2.00
2022-12-11T01:36:47.307Z,2.00
2022-12-11T01:39:49.228Z,2.00
2022-12-11T01:42:51.190Z,2.00
2022-12-11T01:45:53.772Z,2.10
2022-12-11T01:48:56.731Z,2.00
2022-12-11T01:52:05.361Z,2.10
2022-12-11T01:55:11.084Z,2.10
2022-12-11T01:58:13.735Z,2.10
2022-12-11T02:01:25.019Z,2.10
2022-12-11T02:04:28.913Z,1.90
2022-12-11T02:07:36.871Z,2.10
2022-12-11T02:11:10.940Z,2.00
2022-12-11T02:14:23.638Z,2.00
2022-12-11T02:17:44.046Z,1.90
2022-12-11T02:20:59.654Z,2.00
2022-12-11T02:24:08.094Z,1.90
2022-12-11T02:27:28.489Z,1.90
2022-12-11T02:30:31.813Z,1.90
2022-12-11T02:33:41.721Z,1.90
2022-12-11T02:36:48.969Z,1.70
2022-12-11T02:39:54.406Z,1.60
2022-12-11T02:43:00.696Z,1.60
2022-12-11T02:46:05.591Z,1.60
2022-12-11T02:49:08.922Z,1.40
2022-12-11T02:52:12.303Z,1.40
2022-12-11T02:55:18.404Z,1.50
2022-12-11T02:58:29.404Z,1.40
2022-12-11T03:01:31.390Z,1.30
2022-12-11T03:04:36.390Z,1.30
2022-12-11T03:07:40.761Z,1.30
2022-12-11T03:10:42.809Z,1.00
2022-12-11T03:13:44.935Z,1.20
2022-12-11T03:17:03.827Z,1.20
2022-12-11T03:20:20.633Z,1.20
2022-12-11T03:23:30.703Z,1.20
2022-12-11T03:26:39.261Z,1.30
2022-12-11T03:29:48.896Z,1.40
2022-12-11T03:33:04.263Z,1.40
2022-12-11T03:36:11.558Z,1.40
2022-12-11T03:39:18.963Z,1.40
2022-12-11T03:42:24.976Z,1.40
2022-12-11T03:45:29.644Z,1.40
2022-12-11T03:48:36.136Z,1.50
2022-12-11T03:51:38.903Z,1.40
2022-12-11T03:54:46.115Z,1.40
2022-12-11T03:57:48.481Z,1.40
2022-12-11T04:00:50.353Z,1.50
2022-12-11T04:03:52.322Z,1.60
2022-12-11T04:06:54.167Z,1.50
2022-12-11T04:09:56.044Z,1.60
2022-12-11T04:12:58.071Z,1.60
2022-12-11T04:15:59.976Z,1.50
2022-12-11T04:19:02.036Z,1.60
2022-12-11T04:22:04.377Z,1.70
2022-12-11T04:25:07.959Z,1.60
2022-12-11T04:28:10.252Z,1.60
2022-12-11T04:31:17.644Z,1.60
2022-12-11T04:34:22.752Z,1.70
2022-12-11T04:37:24.794Z,1.70
2022-12-11T04:40:28.915Z,1.70
2022-12-11T04:43:34.278Z,1.80
2022-12-11T04:46:36.654Z,1.80
2022-12-11T04:49:38.644Z,1.70
2022-12-11T04:52:41.123Z,1.70
2022-12-11T04:55:43.054Z,1.80
2022-12-11T04:58:45.736Z,1.90
2022-12-11T05:01:47.846Z,1.80
2022-12-11T05:04:49.809Z,1.70
2022-12-11T05:07:51.907Z,1.60
2022-12-11T05:11:04.374Z,1.70
2022-12-11T05:14:06.980Z,1.80
2022-12-11T05:17:08.866Z,1.70
2022-12-11T05:20:11.180Z,1.80
2022-12-11T05:23:15.602Z,1.70
2022-12-11T05:26:19.768Z,1.80
2022-12-11T05:29:21.715Z,1.70
2022-12-11T05:32:23.595Z,1.80
2022-12-11T05:35:25.521Z,1.80
2022-12-11T05:38:27.544Z,1.80
2022-12-11T05:41:31.340Z,1.80
2022-12-11T05:44:33.569Z,1.80
2022-12-11T05:47:35.512Z,1.80
2022-12-11T05:50:37.451Z,1.80
2022-12-11T05:53:44.314Z,1.80
2022-12-11T05:56:46.427Z,1.70
2022-12-11T05:59:48.445Z,1.60
2022-12-11T06:02:50.409Z,1.70
2022-12-11T06:05:52.372Z,1.80
2022-12-11T06:08:56.129Z,1.70
2022-12-11T06:11:58.055Z,1.80
2022-12-11T06:14:59.903Z,1.80
2022-12-11T06:18:01.818Z,1.70
2022-12-11T06:21:14.942Z,1.70
2022-12-11T06:24:16.913Z,1.80
2022-12-11T06:27:18.848Z,1.80
2022-12-11T06:30:21.155Z,1.60
2022-12-11T06:33:22.988Z,1.70
2022-12-11T06:36:25.421Z,1.80
2022-12-11T06:39:27.274Z,1.80
2022-12-11T06:42:32.372Z,1.70
2022-12-11T06:45:34.440Z,1.60
2022-12-11T06:48:37.262Z,1.70
2022-12-11T06:51:39.962Z,1.60
2022-12-11T06:54:41.925Z,1.60
2022-12-11T06:57:43.881Z,1.70
2022-12-11T07:00:45.809Z,1.60
2022-12-11T07:03:48.124Z,1.60
2022-12-11T07:06:49.948Z,1.70
2022-12-11T07:09:51.841Z,1.70
2022-12-11T07:12:53.848Z,1.80
2022-12-11T07:15:57.564Z,1.80
2022-12-11T07:18:59.452Z,1.70
2022-12-11T07:22:01.342Z,1.80
2022-12-11T07:25:03.712Z,1.80
2022-12-11T07:28:05.743Z,1.70
2022-12-11T07:31:13.647Z,1.80
2022-12-11T07:34:15.625Z,1.60
2022-12-11T07:37:18.044Z,1.70
2022-12-11T07:40:19.914Z,1.80
2022-12-11T07:43:22.009Z,1.90
2022-12-11T07:46:27.071Z,1.90
2022-12-11T07:49:29.033Z,1.90
2022-12-11T07:52:32.943Z,2.00
2022-12-11T07:55:35.322Z,1.90
2022-12-11T07:58:37.524Z,1.90
2022-12-11T08:01:40.854Z,1.90
2022-12-11T08:04:42.647Z,2.00
2022-12-11T08:07:44.939Z,2.10
2022-12-11T08:10:46.862Z,2.10
2022-12-11T08:13:49.089Z,2.20
2022-12-11T08:16:51.118Z,2.00
2022-12-11T08:19:53.108Z,2.30
2022-12-11T08:22:59.026Z,2.30
2022-12-11T08:26:05.842Z,2.10
2022-12-11T08:29:07.950Z,2.30
2022-12-11T08:32:12.464Z,2.30
2022-12-11T08:35:14.975Z,2.40
2022-12-11T08:38:19.712Z,2.40
2022-12-11T08:41:28.699Z,2.40
2022-12-11T08:44:30.619Z,2.50
2022-12-11T08:47:32.573Z,2.50
2022-12-11T08:50:34.483Z,2.50
2022-12-11T08:53:36.544Z,2.50
2022-12-11T08:56:38.538Z,2.40
2022-12-11T08:59:40.608Z,2.40
2022-12-11T09:02:42.833Z,2.60
2022-12-11T09:05:45.261Z,2.70
2022-12-11T09:08:52.305Z,2.70
2022-12-11T09:11:54.943Z,2.60
2022-12-11T09:14:57.055Z,2.80
2022-12-11T09:17:59.087Z,2.90
2022-12-11T09:21:09.531Z,2.80
2022-12-11T09:24:12.614Z,2.90
2022-12-11T09:27:14.609Z,2.90
2022-12-11T09:30:16.559Z,3.00
2022-12-11T09:33:18.834Z,3.10
2022-12-11T09:36:20.728Z,3.10
2022-12-11T09:39:22.668Z,3.00
2022-12-11T09:42:33.496Z,2.90
2022-12-11T09:45:35.512Z,3.00
2022-12-11T09:48:39.890Z,2.90
2022-12-11T09:51:52.052Z,3.10
2022-12-11T09:54:58.981Z,3.10
2022-12-11T09:58:13.741Z,3.00
2022-12-11T10:01:22.557Z,3.10
2022-12-11T10:05:05.587Z,3.10
2022-12-11T10:08:32.217Z,3.10
2022-12-11T10:12:11.629Z,3.00
2022-12-11T10:15:32.507Z,3.10
2022-12-11T10:18:34.542Z,3.20
2022-12-11T10:21:41.529Z,3.20
2022-12-11T10:28:16.494Z,3.30
2022-12-11T10:31:34.951Z,3.20
2022-12-11T10:34:42.617Z,3.40
2022-12-11T10:37:44.485Z,3.40
2022-12-11T10:40:58.922Z,3.40
2022-12-11T10:44:00.867Z,3.40
2022-12-11T10:47:18.042Z,3.40
2022-12-11T10:50:26.606Z,3.40
2022-12-11T10:53:29.398Z,3.40
2022-12-11T10:56:33.207Z,3.40
2022-12-11T10:59:43.873Z,3.40
2022-12-11T11:02:45.832Z,3.30
2022-12-11T11:05:49.584Z,3.40
2022-12-11T11:08:54.701Z,3.40
2022-12-11T11:11:56.625Z,3.40
2022-12-11T11:15:15.954Z,3.40
2022-12-11T11:18:25.066Z,3.40
2022-12-11T11:21:27.145Z,3.50
2022-12-11T11:24:36.362Z,3.50
2022-12-11T11:27:45.912Z,3.40
2022-12-11T11:31:05.305Z,3.40
2022-12-11T11:34:08.941Z,3.40
2022-12-11T11:37:47.532Z,3.40
2022-12-11T11:41:15.235Z,3.40
2022-12-11T11:44:31.089Z,3.30
2022-12-11T11:47:49.543Z,3.60
2022-12-11T12:03:21.479Z,3.60
2022-12-11T12:06:50.908Z,3.40
2022-12-11T12:10:02.520Z,3.60
2022-12-11T12:13:47.536Z,3.60
2022-12-11T12:17:12.426Z,3.60
2022-12-11T12:20:41.447Z,3.80
2022-12-11T12:23:49.361Z,3.90
2022-12-11T12:27:50.499Z,4.00
2022-12-11T12:31:05.152Z,3.90
2022-12-11T12:34:22.072Z,3.90
2022-12-11T12:37:56.657Z,3.90
2022-12-11T12:41:24.030Z,4.00
2022-12-11T12:44:30.811Z,4.00
2022-12-11T12:47:35.319Z,4.00
2022-12-11T12:50:42.420Z,3.90
2022-12-11T12:53:53.184Z,3.90
2022-12-11T12:56:56.789Z,3.80
2022-12-11T13:00:01.184Z,3.80
2022-12-11T13:03:25.517Z,3.80
2022-12-11T13:06:42.129Z,3.90
2022-12-11T13:09:55.610Z,3.90
2022-12-11T13:12:58.225Z,3.90
2022-12-11T13:16:34.212Z,4.10
2022-12-11T13:19:42.103Z,4.10
2022-12-11T13:22:55.465Z,4.10
2022-12-11T13:26:00.906Z,4.10
2022-12-11T13:29:03.233Z,4.10
2022-12-11T13:32:07.950Z,4.00
2022-12-11T13:35:18.157Z,4.00
2022-12-11T13:38:22.374Z,4.10
2022-12-11T13:41:25.202Z,4.10
2022-12-11T13:44:36.544Z,4.10
2022-12-11T13:47:38.749Z,4.10
2022-12-11T13:50:43.796Z,4.20
2022-12-11T13:53:45.776Z,4.10
2022-12-11T13:57:06.600Z,3.90
2022-12-11T14:00:26.086Z,4.00
2022-12-11T14:03:28.157Z,4.10
2022-12-11T14:06:32.915Z,4.00
2022-12-11T14:09:43.595Z,3.90
2022-12-11T14:13:01.734Z,3.90
2022-12-11T14:16:05.914Z,3.90
2022-12-11T14:19:09.613Z,3.90
2022-12-11T14:22:21.511Z,3.80
2022-12-11T14:25:26.497Z,3.90
2022-12-11T14:28:35.754Z,3.90
2022-12-11T14:31:43.003Z,3.70
2022-12-11T14:34:47.703Z,3.70
2022-12-11T14:37:50.039Z,3.60
2022-12-11T14:41:16.121Z,3.70
2022-12-11T14:44:21.216Z,3.70
2022-12-11T14:47:30.274Z,3.60
2022-12-11T14:50:44.720Z,3.60
2022-12-11T14:53:52.426Z,3.60
2022-12-11T14:56:54.932Z,3.50
2022-12-11T14:59:57.712Z,3.40
2022-12-11T15:03:03.455Z,3.40
2022-12-11T15:06:31.977Z,3.40
2022-12-11T15:09:41.468Z,3.40
2022-12-11T15:12:46.492Z,3.40
2022-12-11T15:15:48.473Z,3.40
2022-12-11T15:18:52.360Z,3.40
2022-12-11T15:21:55.130Z,3.40
2022-12-11T15:24:59.423Z,3.40
2022-12-11T15:28:01.780Z,3.40
2022-12-11T15:31:22.416Z,3.40
2022-12-11T15:34:24.440Z,3.30
2022-12-11T15:37:31.892Z,3.30
2022-12-11T15:40:33.828Z,3.30
2022-12-11T15:43:37.426Z,3.40
2022-12-11T15:46:39.499Z,3.20
2022-12-11T15:49:42.079Z,3.30
2022-12-11T15:52:44.534Z,3.20
2022-12-11T15:55:46.598Z,3.30
2022-12-11T15:58:49.151Z,3.20
2022-12-11T16:04:57.947Z,3.30
2022-12-11T16:08:00.272Z,3.20
2022-12-11T16:11:02.202Z,3.20
2022-12-11T16:14:04.206Z,3.20
2022-12-11T16:17:07.341Z,3.20
2022-12-11T16:20:10.769Z,3.10
2022-12-11T16:23:14.090Z,3.10
2022-12-11T16:26:16.009Z,3.10
2022-12-11T16:29:17.928Z,3.10
2022-12-11T16:32:20.101Z,3.10
2022-12-11T16:35:22.766Z,3.10
2022-12-11T16:38:24.600Z,3.10
2022-12-11T16:41:26.615Z,3.10
2022-12-11T16:44:28.535Z,3.10
2022-12-11T16:47:30.604Z,3.00
2022-12-11T16:50:32.644Z,3.00
2022-12-11T16:53:34.547Z,3.10
2022-12-11T16:56:36.711Z,3.10
2022-12-11T16:59:39.660Z,3.10
2022-12-11T17:02:41.774Z,3.20
2022-12-11T17:05:44.058Z,3.10
2022-12-11T17:08:47.548Z,3.10
2022-12-11T17:11:49.426Z,3.10
2022-12-11T17:14:51.287Z,3.10
2022-12-11T17:17:53.175Z,3.10
2022-12-11T17:20:55.095Z,3.00
2022-12-11T17:23:56.920Z,3.00
2022-12-11T17:26:58.864Z,3.00
2022-12-11T17:30:00.718Z,3.00
2022-12-11T17:33:02.545Z,3.00
2022-12-11T17:36:05.994Z,3.00
2022-12-11T17:39:07.858Z,2.90
2022-12-11T17:42:09.767Z,3.00
2022-12-11T17:45:11.951Z,2.90
2022-12-11T17:48:21.431Z,2.80
2022-12-11T17:51:23.550Z,2.90
2022-12-11T17:54:26.993Z,2.80
2022-12-11T17:57:28.972Z,2.80
2022-12-11T18:00:33.369Z,2.70
2022-12-11T18:03:36.470Z,2.70
2022-12-11T18:06:38.596Z,2.70
2022-12-11T18:09:40.971Z,2.60
2022-12-11T18:12:42.858Z,2.70
2022-12-11T18:15:45.191Z,2.70
2022-12-11T18:18:48.343Z,2.80
2022-12-11T18:21:50.224Z,2.80
2022-12-11T18:24:56.262Z,2.80
2022-12-11T18:27:58.307Z,2.70
2022-12-11T18:31:03.980Z,2.70
2022-12-11T18:34:06.269Z,2.70
2022-12-11T18:37:12.182Z,2.70
2022-12-11T18:40:14.123Z,2.80
2022-12-11T18:43:16.228Z,2.70
2022-12-11T18:46:20.065Z,2.60
2022-12-11T18:49:22.160Z,2.60
2022-12-11T18:52:24.552Z,2.60
2022-12-11T18:55:26.812Z,2.60
2022-12-11T18:58:28.685Z,2.50
2022-12-11T19:01:31.237Z,2.50
2022-12-11T19:04:33.435Z,2.40
2022-12-11T19:07:35.467Z,2.50
2022-12-11T19:10:45.261Z,2.50
2022-12-11T19:13:47.506Z,2.40
2022-12-11T19:16:49.434Z,2.30
2022-12-11T19:19:51.302Z,2.40
2022-12-11T19:22:53.200Z,2.50
2022-12-11T19:25:55.247Z,2.60
2022-12-11T19:28:59.542Z,2.60
2022-12-11T19:32:07.651Z,2.40
2022-12-11T19:35:10.665Z,2.60
2022-12-11T19:38:13.296Z,2.60
2022-12-11T19:41:23.793Z,2.60
2022-12-11T19:44:25.714Z,2.60
2022-12-11T19:47:27.616Z,2.70
2022-12-11T19:50:29.660Z,2.70
2022-12-11T19:53:31.769Z,2.80
2022-12-11T19:56:34.903Z,2.70
2022-12-11T19:59:36.905Z,2.50
2022-12-11T20:02:38.907Z,2.30
2022-12-11T20:05:40.974Z,2.30
2022-12-11T20:08:45.124Z,2.40
2022-12-11T20:11:47.836Z,2.30
2022-12-11T20:14:49.718Z,2.00
2022-12-11T20:17:59.396Z,1.90
2022-12-11T20:21:07.099Z,2.10
2022-12-11T20:24:10.157Z,2.00
2022-12-11T20:27:12.062Z,2.10
2022-12-11T20:30:14.709Z,2.20
2022-12-11T20:33:19.499Z,2.50
2022-12-11T20:36:22.415Z,2.50
2022-12-11T20:39:24.251Z,2.60
2022-12-11T20:42:26.312Z,2.70
2022-12-11T20:45:28.275Z,2.80
2022-12-11T20:48:30.190Z,2.70
2022-12-11T20:51:32.065Z,2.70
2022-12-11T20:54:33.951Z,2.70
2022-12-11T20:57:39.333Z,2.70
2022-12-11T21:00:44.283Z,2.80
2022-12-11T21:03:47.429Z,2.70
2022-12-11T21:06:52.104Z,2.70
2022-12-11T21:09:56.382Z,2.80
2022-12-11T21:12:58.381Z,2.80
2022-12-11T21:16:07.685Z,2.70
2022-12-11T21:19:16.395Z,2.70
2022-12-11T21:22:18.745Z,2.80
2022-12-11T21:25:20.843Z,2.70
2022-12-11T21:28:22.772Z,2.50
2022-12-11T21:31:25.243Z,2.70
2022-12-11T21:34:27.604Z,2.70
2022-12-11T21:37:29.535Z,2.60
2022-12-11T21:40:31.411Z,2.70
2022-12-11T21:43:33.411Z,2.80
2022-12-11T21:46:35.728Z,2.70
2022-12-11T21:49:37.783Z,2.60
2022-12-11T21:52:40.197Z,2.70
2022-12-11T21:55:42.563Z,2.60
2022-12-11T21:58:45.115Z,2.60
2022-12-11T22:01:47.339Z,2.50
2022-12-11T22:04:49.398Z,2.50
2022-12-11T22:07:51.358Z,2.60
2022-12-11T22:10:53.474Z,2.70
2022-12-11T22:13:55.715Z,2.50
2022-12-11T22:16:59.252Z,2.60
2022-12-11T22:20:01.249Z,2.40
2022-12-11T22:23:03.196Z,2.40
2022-12-11T22:26:06.186Z,2.40
2022-12-11T22:29:08.405Z,2.50
2022-12-11T22:32:10.302Z,2.50
2022-12-11T22:35:12.670Z,2.40
2022-12-11T22:38:14.800Z,2.40
2022-12-11T22:41:25.904Z,2.50
2022-12-11T22:44:27.788Z,2.60
2022-12-11T22:47:31.922Z,2.60
2022-12-11T22:50:35.541Z,2.50
2022-12-11T22:53:37.441Z,2.60
2022-12-11T22:56:39.348Z,2.50
2022-12-11T22:59:41.560Z,2.50
2022-12-11T23:02:43.477Z,2.50
2022-12-11T23:05:45.396Z,2.40
2022-12-11T23:08:47.309Z,2.50
2022-12-11T23:11:49.191Z,2.40
2022-12-11T23:14:51.504Z,2.50
2022-12-11T23:17:53.365Z,2.50
2022-12-11T23:20:55.321Z,2.60
2022-12-11T23:23:57.665Z,2.50
2022-12-11T23:27:00.936Z,2.40
2022-12-11T23:30:03.847Z,2.40
2022-12-11T23:33:05.749Z,2.50
2022-12-11T23:36:08.971Z,2.40
2022-12-11T23:39:10.952Z,2.40
2022-12-11T23:42:12.822Z,2.40
2022-12-11T23:45:14.914Z,2.40
2022-12-11T23:48:17.174Z,2.50
2022-12-11T23:51:20.457Z,2.60
2022-12-11T23:54:22.216Z,2.40
2022-12-11T23:57:24.146Z,2.50
